createdAt,value
2022-10-19T00:00:19.486Z,11.30
2022-10-19T00:04:19.590Z,11.30
2022-10-19T00:08:20.122Z,11.30
2022-10-19T00:12:22.762Z,11.20
2022-10-19T00:16:23.692Z,11.20
2022-10-19T00:20:23.835Z,11.20
2022-10-19T00:24:24.532Z,11.20
2022-10-19T00:28:27.409Z,11.10
2022-10-19T00:32:27.531Z,11.10
2022-10-19T00:36:30.668Z,11.10
2022-10-19T00:40:30.998Z,11.10
2022-10-19T00:45:14.142Z,11.10
2022-10-19T00:49:20.459Z,11.10
2022-10-19T00:53:22.762Z,11.00
2022-10-19T00:57:23.739Z,11.00
2022-10-19T01:01:29.994Z,10.90
2022-10-19T01:05:31.683Z,10.80
2022-10-19T01:09:31.871Z,10.70
2022-10-19T01:13:49.348Z,10.60
2022-10-19T01:18:03.721Z,10.60
2022-10-19T01:22:22.344Z,10.60
2022-10-19T01:26:49.741Z,10.60
2022-10-19T01:31:01.494Z,10.50
2022-10-19T01:35:12.165Z,10.50
2022-10-19T01:39:20.477Z,10.40
2022-10-19T01:43:36.258Z,10.50
2022-10-19T01:47:48.782Z,10.50
2022-10-19T01:51:54.784Z,10.50
2022-10-19T01:55:57.938Z,10.70
2022-10-19T02:00:07.291Z,10.60
2022-10-19T02:04:18.501Z,10.60
2022-10-19T02:08:34.317Z,10.60
2022-10-19T02:12:36.600Z,10.60
2022-10-19T02:16:47.598Z,10.60
2022-10-19T02:20:50.772Z,10.60
2022-10-19T02:24:50.961Z,10.50
2022-10-19T02:28:52.248Z,10.50
2022-10-19T02:32:53.875Z,10.40
2022-10-19T02:36:57.271Z,10.40
2022-10-19T02:41:09.201Z,10.40
2022-10-19T02:45:16.020Z,10.40
2022-10-19T02:49:18.151Z,10.50
2022-10-19T02:53:21.431Z,10.50
2022-10-19T02:57:25.683Z,10.50
2022-10-19T03:01:25.813Z,10.50
2022-10-19T03:05:25.974Z,10.50
2022-10-19T03:09:28.680Z,10.50
2022-10-19T03:13:28.841Z,10.50
2022-10-19T03:17:29.047Z,10.40
2022-10-19T03:21:29.157Z,10.30
2022-10-19T03:25:31.879Z,10.20
2022-10-19T03:29:32.050Z,10.10
2022-10-19T03:33:32.091Z,10.00
2022-10-19T03:37:32.408Z,9.90
2022-10-19T03:41:40.343Z,9.90
2022-10-19T03:45:40.439Z,9.80
2022-10-19T03:49:40.608Z,9.80
2022-10-19T03:53:41.917Z,9.70
2022-10-19T03:57:44.774Z,9.70
2022-10-19T04:01:47.700Z,9.80
2022-10-19T04:05:47.727Z,9.80
2022-10-19T04:09:47.823Z,9.90
2022-10-19T04:13:52.179Z,9.90
2022-10-19T04:17:52.198Z,9.90
2022-10-19T04:21:52.605Z,9.90
2022-10-19T04:25:52.864Z,10.00
2022-10-19T04:29:55.505Z,9.90
2022-10-19T04:33:55.581Z,9.80
2022-10-19T04:37:55.669Z,9.70
2022-10-19T04:41:55.757Z,9.70
2022-10-19T04:45:58.438Z,9.70
2022-10-19T04:49:58.569Z,9.70
2022-10-19T04:53:59.824Z,9.70
2022-10-19T04:58:00.328Z,9.70
2022-10-19T05:02:03.006Z,9.70
2022-10-19T05:06:03.144Z,9.80
2022-10-19T05:10:03.244Z,9.80
2022-10-19T05:14:03.285Z,9.80
2022-10-19T05:18:06.437Z,9.90
2022-10-19T05:22:06.614Z,9.90
2022-10-19T05:26:11.203Z,9.90
2022-10-19T05:30:14.546Z,9.90
2022-10-19T05:34:17.831Z,9.90
2022-10-19T05:38:18.772Z,9.80
2022-10-19T05:42:19.373Z,9.80
2022-10-19T05:46:20.322Z,10.00
2022-10-19T05:50:23.214Z,10.00
2022-10-19T05:54:26.369Z,10.00
2022-10-19T05:58:28.980Z,10.00
2022-10-19T06:02:32.161Z,10.00
2022-10-19T06:06:35.020Z,10.10
2022-10-19T06:10:35.131Z,10.10
2022-10-19T06:14:35.317Z,10.10
2022-10-19T06:18:38.531Z,10.00
2022-10-19T06:22:42.556Z,10.00
2022-10-19T06:26:45.769Z,10.10
2022-10-19T06:30:46.143Z,10.10
2022-10-19T06:34:56.393Z,10.20
2022-10-19T06:39:01.719Z,10.30
2022-10-19T06:43:02.077Z,10.30
2022-10-19T06:47:03.381Z,10.40
2022-10-19T06:51:06.742Z,10.50
2022-10-19T06:55:11.242Z,10.50
2022-10-19T06:59:15.180Z,10.60
2022-10-19T07:03:15.376Z,10.70
2022-10-19T07:07:15.519Z,10.70
2022-10-19T07:11:22.612Z,10.80
2022-10-19T07:15:22.784Z,10.80
2022-10-19T07:19:22.896Z,10.90
2022-10-19T07:23:23.024Z,10.90
2022-10-19T07:27:25.743Z,11.00
2022-10-19T07:31:28.064Z,11.10
2022-10-19T07:35:28.333Z,11.20
2022-10-19T07:39:28.493Z,11.30
2022-10-19T07:43:31.188Z,11.30
2022-10-19T07:47:31.477Z,11.30
2022-10-19T07:51:31.787Z,11.40
2022-10-19T07:55:31.893Z,11.30
2022-10-19T07:59:34.722Z,11.30
2022-10-19T08:07:56.029Z,11.40
2022-10-19T08:11:56.200Z,11.40
2022-10-19T08:15:59.208Z,11.40
2022-10-19T08:19:59.283Z,11.40
2022-10-19T08:23:59.762Z,11.50
2022-10-19T08:27:59.908Z,11.60
2022-10-19T08:32:03.047Z,11.70
2022-10-19T08:36:03.158Z,11.80
2022-10-19T08:40:06.355Z,11.90
2022-10-19T08:44:39.212Z,12.00
2022-10-19T08:48:43.730Z,12.10
2022-10-19T08:52:49.008Z,12.20
2022-10-19T08:57:04.885Z,12.40
2022-10-19T09:01:14.487Z,12.60
2022-10-19T09:05:26.052Z,12.90
2022-10-19T09:09:27.189Z,12.90
2022-10-19T09:14:03.710Z,13.10
2022-10-19T09:18:01.669Z,13.40
2022-10-19T09:22:17.943Z,13.30
2022-10-19T09:26:21.157Z,13.50
2022-10-19T09:30:25.579Z,13.50
2022-10-19T09:34:33.058Z,13.80
2022-10-19T09:38:55.832Z,14.20
2022-10-19T09:43:03.311Z,14.50
2022-10-19T09:47:28.305Z,14.40
2022-10-19T09:51:28.481Z,14.60
2022-10-19T09:55:42.098Z,14.80
2022-10-19T09:59:42.235Z,14.90
2022-10-19T10:03:43.800Z,14.90
2022-10-19T10:07:45.003Z,15.10
2022-10-19T10:11:52.561Z,15.30
2022-10-19T10:15:59.291Z,16.10
2022-10-19T10:20:23.502Z,16.60
2022-10-19T10:24:26.000Z,17.20
2022-10-19T10:28:31.244Z,16.90
2022-10-19T10:32:32.952Z,16.60
2022-10-19T10:36:35.007Z,16.20
2022-10-19T10:40:35.428Z,15.90
2022-10-19T10:44:39.281Z,15.60
2022-10-19T10:48:44.890Z,15.60
2022-10-19T10:53:00.941Z,15.70
2022-10-19T10:57:16.673Z,15.70
2022-10-19T11:01:25.709Z,15.90
2022-10-19T11:05:29.962Z,16.00
2022-10-19T11:09:39.360Z,15.90
2022-10-19T11:13:51.586Z,16.20
2022-10-19T11:18:18.479Z,16.50
2022-10-19T11:22:30.655Z,16.00
2022-10-19T11:26:51.699Z,15.60
2022-10-19T11:31:04.250Z,15.60
2022-10-19T11:35:29.351Z,15.60
2022-10-19T11:39:50.984Z,15.90
2022-10-19T11:44:23.522Z,16.10
2022-10-19T11:48:54.798Z,17.60
2022-10-19T11:53:08.832Z,19.70
2022-10-19T11:57:25.681Z,21.20
2022-10-19T12:01:47.539Z,22.60
2022-10-19T12:06:17.308Z,23.30
2022-10-19T12:10:35.424Z,23.20
2022-10-19T12:14:40.016Z,22.90
2022-10-19T12:18:46.045Z,22.60
2022-10-19T12:22:46.677Z,21.40
2022-10-19T12:26:53.142Z,20.30
2022-10-19T12:30:55.072Z,19.90
2022-10-19T12:35:03.494Z,20.60
2022-10-19T12:39:16.075Z,22.30
2022-10-19T12:43:27.923Z,23.40
2022-10-19T12:47:29.231Z,24.10
2022-10-19T12:51:29.484Z,24.90
2022-10-19T12:55:35.052Z,25.40
2022-10-19T12:59:40.697Z,24.70
2022-10-19T13:03:45.284Z,24.40
2022-10-19T13:07:45.417Z,23.70
2022-10-19T13:12:43.246Z,24.00
2022-10-19T13:17:04.515Z,24.30
2022-10-19T13:21:04.752Z,24.70
2022-10-19T13:25:30.407Z,24.20
2022-10-19T13:29:44.798Z,23.50
2022-10-19T13:33:53.917Z,23.50
2022-10-19T13:38:27.006Z,23.10
2022-10-19T13:42:30.982Z,23.60
2022-10-19T13:46:55.339Z,24.00
2022-10-19T13:51:12.181Z,23.90
2022-10-19T13:55:43.032Z,24.00
2022-10-19T14:00:14.886Z,22.90
2022-10-19T14:04:33.014Z,22.40
2022-10-19T14:09:38.078Z,22.80
2022-10-19T14:13:40.859Z,23.20
2022-10-19T14:17:45.136Z,22.30
2022-10-19T14:21:45.198Z,22.20
2022-10-19T14:25:54.545Z,22.00
2022-10-19T14:29:58.030Z,21.70
2022-10-19T14:34:06.331Z,20.90
2022-10-19T14:38:09.074Z,19.80
2022-10-19T14:42:13.345Z,19.10
2022-10-19T14:46:18.965Z,19.30
2022-10-19T14:50:20.298Z,18.90
2022-10-19T14:54:31.212Z,19.20
2022-10-19T14:58:44.566Z,19.30
2022-10-19T15:02:53.747Z,19.30
2022-10-19T15:06:54.611Z,19.10
2022-10-19T15:10:55.755Z,18.30
2022-10-19T15:14:57.012Z,18.20
2022-10-19T15:23:43.517Z,18.00
2022-10-19T15:27:52.322Z,17.50
2022-10-19T15:31:56.449Z,17.30
2022-10-19T15:36:17.097Z,17.30
2022-10-19T15:40:30.735Z,17.00
2022-10-19T15:44:36.915Z,16.60
2022-10-19T15:48:52.345Z,16.70
2022-10-19T15:52:57.852Z,16.20
2022-10-19T15:56:58.099Z,15.70
2022-10-19T16:00:58.158Z,15.30
2022-10-19T16:04:58.739Z,14.90
2022-10-19T16:09:01.936Z,14.50
2022-10-19T16:13:02.122Z,14.20
2022-10-19T16:17:02.226Z,13.80
2022-10-19T16:21:02.947Z,13.40
2022-10-19T16:25:05.834Z,13.00
2022-10-19T16:29:06.342Z,12.70
2022-10-19T16:33:06.919Z,12.40
2022-10-19T16:37:07.493Z,12.10
2022-10-19T16:41:13.705Z,12.00
2022-10-19T16:45:14.730Z,11.70
2022-10-19T16:49:16.276Z,11.50
2022-10-19T16:53:16.387Z,11.30
2022-10-19T16:57:19.068Z,11.10
2022-10-19T17:01:22.260Z,10.90
2022-10-19T17:05:22.416Z,10.80
2022-10-19T17:09:40.943Z,10.70
2022-10-19T17:13:46.452Z,10.50
2022-10-19T17:17:46.603Z,10.40
2022-10-19T17:21:48.284Z,10.30
2022-10-19T17:25:52.620Z,10.20
2022-10-19T17:29:55.318Z,10.10
2022-10-19T17:33:55.906Z,10.00
2022-10-19T17:37:56.030Z,10.00
2022-10-19T17:41:57.548Z,9.80
2022-10-19T17:46:05.228Z,9.70
2022-10-19T17:50:05.392Z,9.60
2022-10-19T17:54:08.691Z,9.60
2022-10-19T17:58:08.798Z,9.50
2022-10-19T18:02:13.484Z,9.40
2022-10-19T18:06:16.312Z,9.40
2022-10-19T18:10:16.388Z,9.30
2022-10-19T18:14:16.827Z,9.30
2022-10-19T18:18:20.276Z,9.20
2022-10-19T18:22:21.917Z,9.20
2022-10-19T18:26:26.129Z,9.10
2022-10-19T18:30:26.205Z,9.00
2022-10-19T18:34:29.736Z,9.00
2022-10-19T18:38:29.934Z,8.90
2022-10-19T18:42:30.953Z,8.80
2022-10-19T18:46:31.922Z,8.80
2022-10-19T18:50:35.287Z,8.90
2022-10-19T18:54:35.438Z,8.90
2022-10-19T18:58:35.967Z,8.90
2022-10-19T19:02:46.581Z,9.00
2022-10-19T19:06:50.198Z,8.90
2022-10-19T19:10:50.578Z,9.00
2022-10-19T19:14:51.054Z,9.00
2022-10-19T19:18:51.510Z,9.10
2022-10-19T19:22:54.200Z,9.10
2022-10-19T19:26:58.106Z,9.10
2022-10-19T19:30:58.199Z,9.10
2022-10-19T19:34:58.502Z,9.10
2022-10-19T19:39:01.521Z,9.00
2022-10-19T19:43:01.935Z,9.00
2022-10-19T19:47:04.458Z,8.90
2022-10-19T19:51:04.578Z,8.90
2022-10-19T19:55:08.619Z,8.80
2022-10-19T19:59:08.807Z,8.80
2022-10-19T20:03:08.929Z,8.70
2022-10-19T20:07:09.163Z,8.60
2022-10-19T20:11:14.920Z,8.50
2022-10-19T20:15:17.927Z,8.50
2022-10-19T20:19:18.154Z,8.50
2022-10-19T20:23:18.628Z,8.40
2022-10-19T20:27:21.284Z,8.30
2022-10-19T20:31:22.025Z,8.20
2022-10-19T20:35:24.220Z,8.20
2022-10-19T20:39:24.332Z,8.10
2022-10-19T20:43:27.155Z,8.10
2022-10-19T20:47:27.543Z,8.00
2022-10-19T20:51:32.103Z,7.90
2022-10-19T20:55:32.528Z,7.90
2022-10-19T20:59:35.469Z,7.80
2022-10-19T21:03:35.772Z,7.70
2022-10-19T21:07:35.880Z,7.60
2022-10-19T21:11:39.652Z,7.60
2022-10-19T21:15:42.276Z,7.50
2022-10-19T21:19:42.380Z,7.50
2022-10-19T21:23:43.021Z,7.50
2022-10-19T21:27:43.105Z,7.50
2022-10-19T21:31:49.081Z,7.40
2022-10-19T21:39:50.421Z,7.40
2022-10-19T21:43:50.714Z,7.40
2022-10-19T21:47:53.334Z,7.40
2022-10-19T21:51:56.389Z,7.40
2022-10-19T21:56:01.935Z,7.30
2022-10-19T22:00:02.077Z,7.30
2022-10-19T22:04:08.578Z,7.30
2022-10-19T22:08:08.946Z,7.20
2022-10-19T22:12:09.256Z,7.30
2022-10-19T22:16:12.818Z,7.20
2022-10-19T22:20:15.697Z,7.20
2022-10-19T22:24:18.510Z,7.00
2022-10-19T22:28:18.552Z,6.90
2022-10-19T22:32:18.754Z,6.80
2022-10-19T22:36:21.420Z,6.60
2022-10-19T22:40:21.629Z,6.50
2022-10-19T22:44:21.703Z,6.30
2022-10-19T22:48:22.692Z,6.30
2022-10-19T22:52:25.435Z,6.30
2022-10-19T22:56:25.525Z,6.20
2022-10-19T23:00:25.620Z,6.20
2022-10-19T23:04:25.632Z,6.10
2022-10-19T23:08:28.740Z,6.00
2022-10-19T23:12:28.878Z,6.10
2022-10-19T23:16:29.366Z,5.90
2022-10-19T23:20:29.411Z,5.90
2022-10-19T23:24:32.248Z,5.80
2022-10-19T23:28:33.833Z,5.80
2022-10-19T23:32:33.847Z,5.80
2022-10-19T23:36:33.958Z,5.70
2022-10-19T23:40:36.806Z,5.80
2022-10-19T23:44:36.933Z,5.80
2022-10-19T23:48:37.983Z,5.80
2022-10-19T23:52:38.098Z,5.70
2022-10-19T23:56:40.949Z,5.70
